createdAt,value
2018-11-04T00:00:56.146Z,22.80
2018-11-04T00:03:24.014Z,23.30
2018-11-04T00:05:54.097Z,23.00
2018-11-04T00:08:21.452Z,22.50
2018-11-04T00:10:48.739Z,24.00
2018-11-04T00:13:16.029Z,22.70
2018-11-04T00:15:43.771Z,22.60
2018-11-04T00:18:11.215Z,22.10
2018-11-04T00:20:38.459Z,22.00
2018-11-04T00:23:05.917Z,21.90
2018-11-04T00:25:33.196Z,21.60
2018-11-04T00:28:00.491Z,23.90
2018-11-04T00:30:27.733Z,24.30
2018-11-04T00:32:54.986Z,23.00
2018-11-04T00:35:22.382Z,23.00
2018-11-04T00:37:49.662Z,22.90
2018-11-04T00:40:16.918Z,22.40
2018-11-04T00:42:45.167Z,22.20
2018-11-04T00:45:12.490Z,26.30
2018-11-04T00:47:39.837Z,25.50
2018-11-04T00:50:13.581Z,26.30
2018-11-04T00:52:41.210Z,25.80
2018-11-04T00:55:09.083Z,27.00
2018-11-04T00:57:36.393Z,25.80
2018-11-04T01:00:06.522Z,24.60
2018-11-04T01:02:33.793Z,24.00
2018-11-04T01:05:05.056Z,24.40
2018-11-04T01:07:32.342Z,23.60
2018-11-04T01:09:59.582Z,22.70
2018-11-04T01:12:26.871Z,22.30
2018-11-04T01:14:54.226Z,22.20
2018-11-04T01:17:21.499Z,22.00
2018-11-04T01:19:48.816Z,22.50
2018-11-04T01:22:16.074Z,22.10
2018-11-04T01:24:43.990Z,21.80
2018-11-04T01:27:11.299Z,21.90
2018-11-04T01:29:38.534Z,22.20
2018-11-04T01:32:05.851Z,21.60
2018-11-04T01:34:33.167Z,21.80
2018-11-04T01:37:00.582Z,24.10
2018-11-04T01:39:27.827Z,23.10
2018-11-04T01:41:55.074Z,23.40
2018-11-04T01:44:22.370Z,23.40
2018-11-04T01:46:49.635Z,23.30
2018-11-04T01:49:16.902Z,22.90
2018-11-04T01:51:45.011Z,22.40
2018-11-04T01:54:13.387Z,22.10
2018-11-04T01:56:40.738Z,22.20
2018-11-04T01:59:08.010Z,22.10
2018-11-04T02:01:35.274Z,23.00
2018-11-04T02:04:02.524Z,22.60
2018-11-04T02:06:29.773Z,22.20
2018-11-04T02:08:57.102Z,25.50
2018-11-04T02:11:24.769Z,24.30
2018-11-04T02:13:52.062Z,23.20
2018-11-04T02:16:19.359Z,23.10
2018-11-04T02:18:46.643Z,22.60
2018-11-04T02:21:14.840Z,22.70
2018-11-04T02:23:42.131Z,22.60
2018-11-04T02:26:09.431Z,22.20
2018-11-04T02:28:36.726Z,25.00
2018-11-04T02:31:07.291Z,26.50
2018-11-04T02:33:34.620Z,26.00
2018-11-04T02:36:01.887Z,24.90
2018-11-04T02:38:29.139Z,25.20
2018-11-04T02:40:57.056Z,25.40
2018-11-04T02:43:24.330Z,24.70
2018-11-04T02:45:51.646Z,24.90
2018-11-04T02:48:18.967Z,24.20
2018-11-04T02:50:46.222Z,23.50
2018-11-04T02:53:14.874Z,23.70
2018-11-04T02:55:42.184Z,23.80
2018-11-04T02:58:09.479Z,23.80
2018-11-04T03:00:36.738Z,23.80
2018-11-04T03:03:04.421Z,24.00
2018-11-04T03:05:31.639Z,26.40
2018-11-04T03:07:58.876Z,28.00
2018-11-04T03:10:26.105Z,27.70
2018-11-04T03:12:53.338Z,27.20
2018-11-04T03:15:20.641Z,28.10
2018-11-04T03:17:47.867Z,26.90
2018-11-04T03:20:15.149Z,26.90
2018-11-04T03:22:42.416Z,26.10
2018-11-04T03:25:09.683Z,27.80
2018-11-04T03:27:36.965Z,27.20
2018-11-04T03:30:05.349Z,27.00
2018-11-04T03:32:32.636Z,28.30
2018-11-04T03:34:59.906Z,28.20
2018-11-04T03:37:27.178Z,27.10
2018-11-04T03:39:54.451Z,26.10
2018-11-04T03:42:21.715Z,27.30
2018-11-04T03:44:48.975Z,31.30
2018-11-04T03:47:16.243Z,29.10
2018-11-04T03:49:44.142Z,29.40
2018-11-04T03:52:11.410Z,28.50
2018-11-04T03:54:38.638Z,28.80
2018-11-04T03:57:06.426Z,26.80
2018-11-04T03:59:33.703Z,28.80
2018-11-04T04:02:01.001Z,29.70
2018-11-04T04:04:28.229Z,29.70
2018-11-04T04:06:55.470Z,28.10
2018-11-04T04:09:22.735Z,31.60
2018-11-04T04:11:49.987Z,30.20
2018-11-04T04:14:17.241Z,28.80
2018-11-04T04:16:44.975Z,29.30
2018-11-04T04:19:12.218Z,29.80
2018-11-04T04:21:39.470Z,31.30
2018-11-04T04:24:06.695Z,29.20
2018-11-04T04:26:33.996Z,29.00
2018-11-04T04:29:01.251Z,28.60
2018-11-04T04:31:28.498Z,29.20
2018-11-04T04:33:55.746Z,27.80
2018-11-04T04:36:23.149Z,27.50
2018-11-04T04:38:50.444Z,28.70
2018-11-04T04:41:17.698Z,28.70
2018-11-04T04:43:44.966Z,30.70
2018-11-04T04:46:12.254Z,31.10
2018-11-04T04:48:40.200Z,29.90
2018-11-04T04:51:07.466Z,31.30
2018-11-04T04:53:34.752Z,32.20
2018-11-04T04:56:02.012Z,35.40
2018-11-04T04:58:29.403Z,35.50
2018-11-04T05:00:56.651Z,35.70
2018-11-04T05:03:24.214Z,35.90
2018-11-04T05:05:51.466Z,36.10
2018-11-04T05:08:18.767Z,37.50
2018-11-04T05:10:46.064Z,38.30
2018-11-04T05:13:14.026Z,38.00
2018-11-04T05:15:41.308Z,36.80
2018-11-04T05:18:08.570Z,37.60
2018-11-04T05:20:36.093Z,38.40
2018-11-04T05:23:03.374Z,39.30
2018-11-04T05:25:30.639Z,39.50
2018-11-04T05:27:57.939Z,41.20
2018-11-04T05:30:25.203Z,43.30
2018-11-04T05:32:52.476Z,43.20
2018-11-04T05:35:19.722Z,45.60
2018-11-04T05:37:47.095Z,46.20
2018-11-04T05:40:14.664Z,46.70
2018-11-04T05:42:42.000Z,46.50
2018-11-04T05:45:09.306Z,46.90
2018-11-04T05:47:36.654Z,49.10
2018-11-04T05:50:04.620Z,51.00
2018-11-04T05:52:31.873Z,51.30
2018-11-04T05:54:59.139Z,53.10
2018-11-04T05:57:26.405Z,54.10
2018-11-04T05:59:53.746Z,55.00
2018-11-04T06:02:21.017Z,55.70
2018-11-04T06:04:48.270Z,55.80
2018-11-04T06:07:15.529Z,56.00
2018-11-04T06:09:43.650Z,58.00
2018-11-04T06:12:10.921Z,58.00
2018-11-04T06:14:38.183Z,58.60
2018-11-04T06:17:05.517Z,59.10
2018-11-04T06:19:32.890Z,59.70
2018-11-04T06:22:00.143Z,58.70
2018-11-04T06:24:27.414Z,57.10
2018-11-04T06:26:54.647Z,58.10
2018-11-04T06:29:21.865Z,57.70
2018-11-04T06:31:49.120Z,60.00
2018-11-04T06:34:16.381Z,60.70
2018-11-04T06:36:44.452Z,61.70
2018-11-04T06:39:11.679Z,62.20
2018-11-04T06:41:38.907Z,63.00
2018-11-04T06:44:06.707Z,64.00
2018-11-04T06:46:33.954Z,65.00
2018-11-04T06:49:01.256Z,65.80
2018-11-04T06:51:28.568Z,66.80
2018-11-04T06:53:55.882Z,67.20
2018-11-04T06:56:23.118Z,67.10
2018-11-04T06:58:50.550Z,67.40
2018-11-04T07:01:17.813Z,67.00
2018-11-04T07:03:56.779Z,67.10
2018-11-04T07:06:24.050Z,67.60
2018-11-04T07:08:51.364Z,67.80
2018-11-04T07:11:18.912Z,67.80
2018-11-04T07:13:46.203Z,68.10
2018-11-04T07:16:13.754Z,68.10
2018-11-04T07:18:41.036Z,68.00
2018-11-04T07:21:08.355Z,68.20
2018-11-04T07:23:35.615Z,68.20
2018-11-04T07:26:02.886Z,68.10
2018-11-04T07:28:30.199Z,68.10
2018-11-04T07:30:57.466Z,68.40
2018-11-04T07:33:24.725Z,68.40
2018-11-04T07:35:51.975Z,68.30
2018-11-04T07:38:19.447Z,67.40
2018-11-04T07:40:46.810Z,68.00
2018-11-04T07:43:14.428Z,68.00
2018-11-04T07:45:41.718Z,67.70
2018-11-04T07:48:09.069Z,67.60
2018-11-04T07:50:36.372Z,67.70
2018-11-04T07:53:03.654Z,68.40
2018-11-04T07:55:30.895Z,68.50
2018-11-04T07:57:58.178Z,68.70
2018-11-04T08:00:25.425Z,69.10
2018-11-04T08:02:52.696Z,69.30
2018-11-04T08:05:19.925Z,69.00
2018-11-04T08:07:47.160Z,69.00
2018-11-04T08:10:15.545Z,68.70
2018-11-04T08:12:43.439Z,68.20
2018-11-04T08:15:11.223Z,68.00
2018-11-04T08:17:38.866Z,68.10
2018-11-04T08:20:06.712Z,68.10
2018-11-04T08:22:33.961Z,68.80
2018-11-04T08:25:01.373Z,68.50
2018-11-04T08:27:28.798Z,68.70
2018-11-04T08:29:56.168Z,68.50
2018-11-04T08:32:23.880Z,68.50
2018-11-04T08:34:51.211Z,68.60
2018-11-04T08:37:18.452Z,69.00
2018-11-04T08:39:45.761Z,68.30
2018-11-04T08:42:13.903Z,68.40
2018-11-04T08:44:41.190Z,68.10
2018-11-04T08:47:08.433Z,68.70
2018-11-04T08:49:35.732Z,67.80
2018-11-04T08:52:03.025Z,68.10
2018-11-04T08:54:30.314Z,68.20
2018-11-04T08:56:57.589Z,68.90
2018-11-04T08:59:24.840Z,68.40
2018-11-04T09:01:52.147Z,68.80
2018-11-04T09:04:19.403Z,68.70
2018-11-04T09:06:46.746Z,68.80
2018-11-04T09:09:14.675Z,69.70
2018-11-04T09:11:41.948Z,70.20
2018-11-04T09:14:09.305Z,70.70
2018-11-04T09:16:36.496Z,70.30
2018-11-04T09:19:03.827Z,71.00
2018-11-04T09:21:31.138Z,71.20
2018-11-04T09:23:58.506Z,70.90
2018-11-04T09:26:25.811Z,71.00
2018-11-04T09:28:54.131Z,71.10
2018-11-04T09:31:21.474Z,70.30
2018-11-04T09:33:48.776Z,70.50
2018-11-04T09:36:16.284Z,70.30
2018-11-04T09:38:44.655Z,69.80
2018-11-04T09:41:12.311Z,69.40
2018-11-04T09:43:39.718Z,70.00
2018-11-04T09:46:06.987Z,69.40
2018-11-04T09:48:34.275Z,69.20
2018-11-04T09:51:01.763Z,68.90
2018-11-04T09:53:29.067Z,68.80
2018-11-04T09:55:56.308Z,68.60
2018-11-04T09:58:23.639Z,68.50
2018-11-04T10:00:50.888Z,68.40
2018-11-04T10:03:18.160Z,67.90
2018-11-04T10:05:45.467Z,67.80
2018-11-04T10:08:13.307Z,68.00
2018-11-04T10:10:40.546Z,67.50
2018-11-04T10:13:08.323Z,67.00
2018-11-04T10:15:35.826Z,66.70
2018-11-04T10:18:03.338Z,66.00
2018-11-04T10:20:31.063Z,66.20
2018-11-04T10:22:58.251Z,65.10
2018-11-04T10:25:25.719Z,65.50
2018-11-04T10:27:53.166Z,65.90
2018-11-04T10:30:20.656Z,65.30
2018-11-04T10:32:48.203Z,65.30
2018-11-04T10:35:15.763Z,65.30
2018-11-04T10:37:44.059Z,64.70
2018-11-04T10:40:12.254Z,65.20
2018-11-04T10:42:39.719Z,65.30
2018-11-04T10:45:08.398Z,64.70
2018-11-04T10:47:35.961Z,65.10
2018-11-04T10:50:08.307Z,64.60
2018-11-04T10:52:35.849Z,65.00
2018-11-04T10:55:03.647Z,65.20
2018-11-04T10:57:31.301Z,64.70
2018-11-04T10:59:58.815Z,64.80
2018-11-04T11:02:26.349Z,64.80
2018-11-04T11:04:53.844Z,66.10
2018-11-04T11:07:21.364Z,66.30
2018-11-04T11:09:48.810Z,66.40
2018-11-04T11:12:16.450Z,67.00
2018-11-04T11:14:45.987Z,67.70
2018-11-04T11:17:13.779Z,68.50
2018-11-04T11:19:41.287Z,68.30
2018-11-04T11:22:08.739Z,68.50
2018-11-04T11:24:36.271Z,68.90
2018-11-04T11:27:03.739Z,69.50
2018-11-04T11:29:31.254Z,69.90
2018-11-04T11:31:58.787Z,70.60
2018-11-04T11:34:26.438Z,71.10
2018-11-04T11:36:53.918Z,72.80
2018-11-04T11:39:21.432Z,72.30
2018-11-04T11:41:48.910Z,72.30
2018-11-04T11:44:16.455Z,72.10
2018-11-04T11:46:44.775Z,71.90
2018-11-04T11:49:12.237Z,71.60
2018-11-04T11:51:39.667Z,70.60
2018-11-04T11:54:07.463Z,67.00
2018-11-04T11:56:34.934Z,65.80
2018-11-04T11:59:04.426Z,65.60
2018-11-04T12:01:31.879Z,65.00
2018-11-04T12:03:59.375Z,64.00
2018-11-04T12:06:26.819Z,61.80
2018-11-04T12:08:54.323Z,57.70
2018-11-04T12:11:21.883Z,58.30
2018-11-04T12:13:49.339Z,56.20
2018-11-04T12:16:16.932Z,53.50
2018-11-04T12:18:44.879Z,53.90
2018-11-04T12:21:12.360Z,54.00
2018-11-04T12:23:40.795Z,50.60
2018-11-04T12:26:08.528Z,49.40
2018-11-04T12:28:36.056Z,48.90
2018-11-04T12:31:03.708Z,49.90
2018-11-04T12:33:31.280Z,50.20
2018-11-04T12:35:59.797Z,50.20
2018-11-04T12:38:27.408Z,46.50
2018-11-04T12:40:54.891Z,45.20
2018-11-04T12:43:22.371Z,43.00
2018-11-04T12:45:50.226Z,41.20
2018-11-04T12:48:17.862Z,41.30
2018-11-04T12:50:45.351Z,38.50
2018-11-04T12:53:13.639Z,39.20
2018-11-04T12:55:41.109Z,36.30
2018-11-04T12:58:08.919Z,36.10
2018-11-04T13:00:36.436Z,36.10
2018-11-04T13:03:04.007Z,33.50
2018-11-04T13:05:31.460Z,34.20
2018-11-04T13:07:59.730Z,33.80
2018-11-04T13:10:27.445Z,33.30
2018-11-04T13:12:55.007Z,33.50
2018-11-04T13:15:22.640Z,31.10
2018-11-04T13:17:50.254Z,30.40
2018-11-04T13:20:17.936Z,30.40
2018-11-04T13:22:45.938Z,28.60
2018-11-04T13:25:14.380Z,29.70
2018-11-04T13:27:42.059Z,29.90
2018-11-04T13:30:12.882Z,29.50
2018-11-04T13:32:40.495Z,26.90
2018-11-04T13:35:08.079Z,27.70
2018-11-04T13:37:35.678Z,27.30
2018-11-04T13:40:04.075Z,27.00
2018-11-04T13:42:31.796Z,27.40
2018-11-04T13:44:59.894Z,27.80
2018-11-04T13:47:27.370Z,27.20
2018-11-04T13:49:54.891Z,27.20
2018-11-04T13:52:22.371Z,26.30
2018-11-04T13:54:50.220Z,26.10
2018-11-04T13:57:17.821Z,25.60
2018-11-04T13:59:45.315Z,25.70
2018-11-04T14:02:13.454Z,25.90
2018-11-04T14:04:41.003Z,25.30
2018-11-04T14:07:08.459Z,25.30
2018-11-04T14:09:35.925Z,24.40
2018-11-04T14:12:03.667Z,24.80
2018-11-04T14:14:31.298Z,25.40
2018-11-04T14:16:58.785Z,25.60
2018-11-04T14:19:26.288Z,25.30
2018-11-04T14:21:54.248Z,25.40
2018-11-04T14:24:21.770Z,23.20
2018-11-04T14:26:49.257Z,23.80
2018-11-04T14:29:16.762Z,24.10
2018-11-04T14:31:44.832Z,24.60
2018-11-04T14:34:12.362Z,24.30
2018-11-04T14:36:40.301Z,23.50
2018-11-04T14:39:08.456Z,23.60
2018-11-04T14:41:35.950Z,24.50
2018-11-04T14:44:03.466Z,23.70
2018-11-04T14:46:30.995Z,23.70
2018-11-04T14:48:58.423Z,22.90
2018-11-04T14:51:25.879Z,21.90
2018-11-04T14:53:53.461Z,21.90
2018-11-04T14:56:24.544Z,20.90
2018-11-04T14:58:51.986Z,21.80
2018-11-04T15:01:19.502Z,22.00
2018-11-04T15:03:46.884Z,20.60
2018-11-04T15:06:15.448Z,19.80
2018-11-04T15:08:43.634Z,19.40
2018-11-04T15:11:10.867Z,19.00
2018-11-04T15:13:38.190Z,20.50
2018-11-04T15:16:05.643Z,20.60
2018-11-04T15:18:33.161Z,20.50
2018-11-04T15:21:00.619Z,21.00
2018-11-04T15:23:28.094Z,20.40
2018-11-04T15:25:55.562Z,19.90
2018-11-04T15:28:23.366Z,19.90
2018-11-04T15:30:50.964Z,18.90
2018-11-04T15:33:18.846Z,19.00
2018-11-04T15:35:46.374Z,20.00
2018-11-04T15:38:13.956Z,19.00
2018-11-04T15:40:42.070Z,20.00
2018-11-04T15:43:10.510Z,18.30
2018-11-04T15:45:37.777Z,19.10
2018-11-04T15:48:05.071Z,20.50
2018-11-04T15:50:32.334Z,20.50
2018-11-04T15:52:59.781Z,19.70
2018-11-04T15:55:27.074Z,20.10
2018-11-04T15:57:54.368Z,20.00
2018-11-04T16:00:21.955Z,20.30
2018-11-04T16:02:49.974Z,20.90
2018-11-04T16:05:17.460Z,21.60
2018-11-04T16:07:44.767Z,21.70
2018-11-04T16:10:12.479Z,21.00
2018-11-04T16:12:40.747Z,20.60
2018-11-04T16:15:10.354Z,20.50
2018-11-04T16:17:37.811Z,21.30
2018-11-04T16:20:07.098Z,21.60
2018-11-04T16:22:34.583Z,21.80
2018-11-04T16:25:02.054Z,21.80
2018-11-04T16:27:32.699Z,22.20
2018-11-04T16:30:00.239Z,22.40
2018-11-04T16:32:27.911Z,22.90
2018-11-04T16:34:55.462Z,22.00
2018-11-04T16:37:23.038Z,21.50
2018-11-04T16:39:54.106Z,22.00
2018-11-04T16:42:21.743Z,22.80
2018-11-04T16:44:49.039Z,22.10
2018-11-04T16:47:16.483Z,21.90
2018-11-04T16:49:44.278Z,22.20
2018-11-04T16:52:13.342Z,22.80
2018-11-04T16:54:40.924Z,22.80
2018-11-04T16:57:09.126Z,23.40
2018-11-04T16:59:37.292Z,23.90
2018-11-04T17:02:05.078Z,24.00
2018-11-04T17:04:32.860Z,24.40
2018-11-04T17:07:00.267Z,24.20
2018-11-04T17:09:27.755Z,24.40
2018-11-04T17:11:55.312Z,24.80
2018-11-04T17:14:25.290Z,24.90
2018-11-04T17:16:52.560Z,25.30
2018-11-04T17:19:19.868Z,25.60
2018-11-04T17:21:47.598Z,25.70
2018-11-04T17:24:15.147Z,25.80
2018-11-04T17:26:42.870Z,26.00
2018-11-04T17:29:10.614Z,26.00
2018-11-04T17:31:39.181Z,26.60
2018-11-04T17:34:06.601Z,26.70
2018-11-04T17:36:34.050Z,27.00
2018-11-04T17:39:01.309Z,27.40
2018-11-04T17:41:29.145Z,27.50
2018-11-04T17:43:56.465Z,27.60
2018-11-04T17:46:23.715Z,27.80
2018-11-04T17:48:51.150Z,28.10
2018-11-04T17:51:18.647Z,28.10
2018-11-04T17:53:46.212Z,28.30
2018-11-04T17:56:14.422Z,28.30
2018-11-04T17:58:41.676Z,27.90
2018-11-04T18:01:13.479Z,28.00
2018-11-04T18:03:41.095Z,28.20
2018-11-04T18:06:08.427Z,28.20
2018-11-04T18:08:35.694Z,28.40
2018-11-04T18:11:05.024Z,28.50
2018-11-04T18:13:32.353Z,28.40
2018-11-04T18:15:59.926Z,28.10
2018-11-04T18:18:27.155Z,28.30
2018-11-04T18:20:54.979Z,28.80
2018-11-04T18:23:22.270Z,29.00
2018-11-04T18:25:51.518Z,29.40
2018-11-04T18:28:18.818Z,29.00
2018-11-04T18:30:46.106Z,29.10
2018-11-04T18:33:13.403Z,29.10
2018-11-04T18:35:40.739Z,28.60
2018-11-04T18:38:08.003Z,28.10
2018-11-04T18:40:35.285Z,28.10
2018-11-04T18:43:02.650Z,28.90
2018-11-04T18:45:29.892Z,28.30
2018-11-04T18:47:57.320Z,28.30
2018-11-04T18:50:24.629Z,28.70
2018-11-04T18:52:51.989Z,29.40
2018-11-04T18:55:19.423Z,29.60
2018-11-04T18:57:46.750Z,30.00
2018-11-04T19:00:16.975Z,29.90
2018-11-04T19:02:45.970Z,30.00
2018-11-04T19:05:13.738Z,30.00
2018-11-04T19:07:41.056Z,30.30
2018-11-04T19:10:10.972Z,29.30
2018-11-04T19:12:38.427Z,30.20
2018-11-04T19:15:06.366Z,30.60
2018-11-04T19:17:33.930Z,31.10
2018-11-04T19:20:01.619Z,32.00
2018-11-04T19:22:33.737Z,31.90
2018-11-04T19:25:01.093Z,31.90
2018-11-04T19:27:28.370Z,31.90
2018-11-04T19:29:55.650Z,30.90
2018-11-04T19:32:22.918Z,31.70
2018-11-04T19:34:50.182Z,31.60
2018-11-04T19:37:22.052Z,31.50
2018-11-04T19:39:49.233Z,31.50
2018-11-04T19:42:16.573Z,31.40
2018-11-04T19:44:43.922Z,31.30
2018-11-04T19:47:11.295Z,31.20
2018-11-04T19:49:38.608Z,31.10
2018-11-04T19:52:05.959Z,31.60
2018-11-04T19:54:33.253Z,31.60
2018-11-04T19:57:00.525Z,32.10
2018-11-04T19:59:27.790Z,32.50
2018-11-04T20:01:55.044Z,32.00
2018-11-04T20:04:22.331Z,32.40
2018-11-04T20:06:50.263Z,33.80
2018-11-04T20:09:18.013Z,34.70
2018-11-04T20:11:45.902Z,35.90
2018-11-04T20:14:17.303Z,36.30
2018-11-04T20:16:46.819Z,37.80
2018-11-04T20:19:20.459Z,37.50
2018-11-04T20:21:47.847Z,37.10
2018-11-04T20:24:24.591Z,37.50
2018-11-04T20:26:51.862Z,42.40
2018-11-04T20:29:19.143Z,45.10
2018-11-04T20:31:52.243Z,47.70
2018-11-04T20:34:19.501Z,47.40
2018-11-04T20:36:46.986Z,48.40
2018-11-04T20:39:20.712Z,47.30
2018-11-04T20:41:47.966Z,47.30
2018-11-04T20:44:15.255Z,47.20
2018-11-04T20:46:42.525Z,46.30
2018-11-04T20:49:16.189Z,47.80
2018-11-04T20:51:43.901Z,48.10
2018-11-04T20:54:11.311Z,47.80
2018-11-04T20:56:44.559Z,46.00
2018-11-04T20:59:11.981Z,46.30
2018-11-04T21:01:39.422Z,45.90
2018-11-04T21:04:07.323Z,46.50
2018-11-04T21:06:34.839Z,47.00
2018-11-04T21:09:02.465Z,49.30
2018-11-04T21:11:29.970Z,51.30
2018-11-04T21:13:57.452Z,51.90
2018-11-04T21:16:24.972Z,52.60
2018-11-04T21:18:52.386Z,53.90
2018-11-04T21:21:19.967Z,52.80
2018-11-04T21:23:47.454Z,52.00
2018-11-04T21:26:14.947Z,51.60
2018-11-04T21:28:42.596Z,52.80
2018-11-04T21:31:10.974Z,52.50
2018-11-04T21:33:38.406Z,53.80
2018-11-04T21:36:05.940Z,53.70
2018-11-04T21:38:33.426Z,54.50
2018-11-04T21:41:00.897Z,54.30
2018-11-04T21:43:28.835Z,54.90
2018-11-04T21:45:55.954Z,53.30
2018-11-04T21:48:23.406Z,53.20
2018-11-04T21:50:53.788Z,51.30
2018-11-04T21:53:21.087Z,49.70
2018-11-04T21:55:48.549Z,48.80
2018-11-04T21:58:15.827Z,48.80
2018-11-04T22:00:44.814Z,48.30
2018-11-04T22:03:15.389Z,48.20
2018-11-04T22:05:43.290Z,49.40
2018-11-04T22:08:10.611Z,48.20
2018-11-04T22:10:38.013Z,47.90
2018-11-04T22:13:05.273Z,47.90
2018-11-04T22:15:32.563Z,48.20
2018-11-04T22:17:59.821Z,46.60
2018-11-04T22:20:27.111Z,45.70
2018-11-04T22:22:54.396Z,45.50
2018-11-04T22:25:21.694Z,45.70
2018-11-04T22:27:49.158Z,45.20
2018-11-04T22:30:16.877Z,44.20
2018-11-04T22:32:44.403Z,45.40
2018-11-04T22:35:11.892Z,47.80
2018-11-04T22:37:39.419Z,45.80
2018-11-04T22:40:07.971Z,47.20
2018-11-04T22:42:35.529Z,47.70
2018-11-04T22:45:03.423Z,46.90
2018-11-04T22:47:30.971Z,44.60
2018-11-04T22:49:58.536Z,44.60
2018-11-04T22:52:25.958Z,45.00
2018-11-04T22:54:53.534Z,44.40
2018-11-04T22:57:21.248Z,43.40
2018-11-04T22:59:48.716Z,50.20
2018-11-04T23:02:16.540Z,48.70
2018-11-04T23:04:50.031Z,46.30
2018-11-04T23:07:17.526Z,44.20
2018-11-04T23:09:45.799Z,42.30
2018-11-04T23:12:14.210Z,42.30
2018-11-04T23:14:41.659Z,41.90
2018-11-04T23:17:09.131Z,41.50
2018-11-04T23:19:36.660Z,41.50
2018-11-04T23:22:04.293Z,41.50
2018-11-04T23:24:38.071Z,41.80
2018-11-04T23:27:09.212Z,41.50
2018-11-04T23:29:36.597Z,41.80
2018-11-04T23:32:04.458Z,42.90
2018-11-04T23:34:31.715Z,42.80
2018-11-04T23:36:58.985Z,43.10
2018-11-04T23:39:26.267Z,42.60
2018-11-04T23:41:53.583Z,42.70
2018-11-04T23:44:20.894Z,41.40
2018-11-04T23:46:48.216Z,44.10
2018-11-04T23:49:15.620Z,48.60
2018-11-04T23:51:43.521Z,46.40
2018-11-04T23:54:11.476Z,45.00
2018-11-04T23:56:38.711Z,46.90
2018-11-04T23:59:06.006Z,46.80
